sensor_id;sensor_type;location;lat;lon;timestamp;pressure;altitude;pressure_sealevel;temperature;humidity
1832;BME280;1680;48.106;11.708;2023-10-19T00:02:05;94118.16;;;8.66;100.00
1832;BME280;1680;48.106;11.708;2023-10-19T00:04:33;94119.00;;;8.50;100.00
1832;BME280;1680;48.106;11.708;2023-10-19T00:07:01;94105.84;;;8.40;100.00
1832;BME280;1680;48.106;11.708;2023-10-19T00:09:30;94108.44;;;8.40;100.00
1832;BME280;1680;48.106;11.708;2023-10-19T00:12:03;94108.25;;;8.47;100.00
1832;BME280;1680;48.106;11.708;2023-10-19T00:14:34;94094.94;;;8.48;100.00
1832;BME280;1680;48.106;11.708;2023-10-19T00:17:02;94100.63;;;8.40;100.00
1832;BME280;1680;48.106;11.708;2023-10-19T00:19:32;94101.53;;;8.51;100.00
1832;BME280;1680;48.106;11.708;2023-10-19T00:22:04;94104.81;;;8.41;100.00
1832;BME280;1680;48.106;11.708;2023-10-19T00:24:36;94109.00;;;8.42;100.00
1832;BME280;1680;48.106;11.708;2023-10-19T00:27:04;94102.25;;;8.46;100.00
1832;BME280;1680;48.106;11.708;2023-10-19T00:29:40;94106.38;;;8.42;100.00
1832;BME280;1680;48.106;11.708;2023-10-19T00:32:15;94099.81;;;8.40;100.00
1832;BME280;1680;48.106;11.708;2023-10-19T00:34:43;94092.72;;;8.35;100.00
1832;BME280;1680;48.106;11.708;2023-10-19T00:37:17;94097.53;;;8.43;100.00
1832;BME280;1680;48.106;11.708;2023-10-19T00:39:52;94103.41;;;8.34;100.00
1832;BME280;1680;48.106;11.708;2023-10-19T00:42:20;94086.94;;;8.33;100.00
1832;BME280;1680;48.106;11.708;2023-10-19T00:44:50;94092.22;;;8.38;100.00
1832;BME280;1680;48.106;11.708;2023-10-19T00:47:27;94085.34;;;8.32;100.00
1832;BME280;1680;48.106;11.708;2023-10-19T00:50:06;94077.78;;;8.31;100.00
1832;BME280;1680;48.106;11.708;2023-10-19T00:52:40;94078.69;;;8.41;100.00
1832;BME280;1680;48.106;11.708;2023-10-19T00:55:09;94080.25;;;8.42;100.00
1832;BME280;1680;48.106;11.708;2023-10-19T00:57:39;94063.00;;;8.41;100.00
1832;BME280;1680;48.106;11.708;2023-10-19T01:00:12;94059.91;;;8.44;100.00
1832;BME280;1680;48.106;11.708;2023-10-19T01:02:48;94064.09;;;8.45;100.00
1832;BME280;1680;48.106;11.708;2023-10-19T01:05:25;94061.06;;;8.53;100.00
1832;BME280;1680;48.106;11.708;2023-10-19T01:07:58;94054.53;;;8.56;100.00
1832;BME280;1680;48.106;11.708;2023-10-19T01:10:30;94065.97;;;8.50;100.00
1832;BME280;1680;48.106;11.708;2023-10-19T01:12:57;94065.97;;;8.50;100.00
1832;BME280;1680;48.106;11.708;2023-10-19T01:15:26;94061.06;;;8.53;100.00
1832;BME280;1680;48.106;11.708;2023-10-19T01:17:58;94055.34;;;8.56;100.00
1832;BME280;1680;48.106;11.708;2023-10-19T01:20:29;94043.88;;;8.62;100.00
1832;BME280;1680;48.106;11.708;2023-10-19T01:23:17;94029.03;;;8.63;100.00
1832;BME280;1680;48.106;11.708;2023-10-19T01:25:50;94025.59;;;8.62;100.00
1832;BME280;1680;48.106;11.708;2023-10-19T01:28:26;94045.41;;;8.84;100.00
1832;BME280;1680;48.106;11.708;2023-10-19T01:31:07;94048.44;;;8.71;100.00
1832;BME280;1680;48.106;11.708;2023-10-19T01:33:39;94056.03;;;8.73;100.00
1832;BME280;1680;48.106;11.708;2023-10-19T01:36:07;94047.38;;;8.68;100.00
1832;BME280;1680;48.106;11.708;2023-10-19T01:38:39;94048.06;;;8.58;100.00
1832;BME280;1680;48.106;11.708;2023-10-19T01:41:07;94055.81;;;8.53;100.00
1832;BME280;1680;48.106;11.708;2023-10-19T01:43:39;94069.09;;;8.73;100.00
1832;BME280;1680;48.106;11.708;2023-10-19T01:46:08;94064.38;;;8.70;100.00
1832;BME280;1680;48.106;11.708;2023-10-19T01:48:38;94065.41;;;8.69;100.00
1832;BME280;1680;48.106;11.708;2023-10-19T01:51:07;94051.72;;;8.62;100.00
1832;BME280;1680;48.106;11.708;2023-10-19T01:53:40;94055.50;;;8.71;100.00
1832;BME280;1680;48.106;11.708;2023-10-19T01:56:09;94055.25;;;8.72;100.00
1832;BME280;1680;48.106;11.708;2023-10-19T01:58:36;94059.16;;;8.70;100.00
1832;BME280;1680;48.106;11.708;2023-10-19T02:01:05;94062.00;;;8.68;100.00
1832;BME280;1680;48.106;11.708;2023-10-19T02:03:40;94060.78;;;8.76;100.00
1832;BME280;1680;48.106;11.708;2023-10-19T02:06:08;94057.44;;;8.85;100.00
1832;BME280;1680;48.106;11.708;2023-10-19T02:08:46;94053.59;;;8.93;100.00
1832;BME280;1680;48.106;11.708;2023-10-19T02:11:15;94052.00;;;8.87;100.00
1832;BME280;1680;48.106;11.708;2023-10-19T02:13:45;94049.59;;;8.85;100.00
1832;BME280;1680;48.106;11.708;2023-10-19T02:16:16;94016.59;;;8.74;100.00
1832;BME280;1680;48.106;11.708;2023-10-19T02:18:46;94034.25;;;8.94;100.00
1832;BME280;1680;48.106;11.708;2023-10-19T02:21:13;94030.06;;;8.93;100.00
1832;BME280;1680;48.106;11.708;2023-10-19T02:23:48;94026.94;;;8.91;100.00
1832;BME280;1680;48.106;11.708;2023-10-19T02:26:16;94037.63;;;8.89;100.00
1832;BME280;1680;48.106;11.708;2023-10-19T02:28:45;94047.84;;;8.91;100.00
1832;BME280;1680;48.106;11.708;2023-10-19T02:31:11;94036.03;;;8.83;100.00
1832;BME280;1680;48.106;11.708;2023-10-19T02:33:44;94043.59;;;8.85;100.00
1832;BME280;1680;48.106;11.708;2023-10-19T02:36:11;94019.13;;;8.69;100.00
1832;BME280;1680;48.106;11.708;2023-10-19T02:38:44;94051.44;;;8.85;100.00
1832;BME280;1680;48.106;11.708;2023-10-19T02:41:15;94042.63;;;8.91;100.00
1832;BME280;1680;48.106;11.708;2023-10-19T02:43:46;94029.50;;;8.86;100.00
1832;BME280;1680;48.106;11.708;2023-10-19T02:46:17;94039.47;;;8.89;100.00
1832;BME280;1680;48.106;11.708;2023-10-19T02:48:45;94038.94;;;8.87;100.00
1832;BME280;1680;48.106;11.708;2023-10-19T02:51:15;94024.56;;;8.89;100.00
1832;BME280;1680;48.106;11.708;2023-10-19T02:53:44;94037.41;;;8.91;100.00
1832;BME280;1680;48.106;11.708;2023-10-19T02:56:11;94019.59;;;8.88;100.00
1832;BME280;1680;48.106;11.708;2023-10-19T02:58:43;94032.75;;;8.98;100.00
1832;BME280;1680;48.106;11.708;2023-10-19T03:01:15;94021.25;;;8.99;100.00
1832;BME280;1680;48.106;11.708;2023-10-19T03:03:47;94023.88;;;8.99;100.00
1832;BME280;1680;48.106;11.708;2023-10-19T03:06:18;94020.72;;;8.97;100.00
1832;BME280;1680;48.106;11.708;2023-10-19T03:08:45;94017.06;;;8.98;100.00
1832;BME280;1680;48.106;11.708;2023-10-19T03:11:13;94022.00;;;8.94;100.00
1832;BME280;1680;48.106;11.708;2023-10-19T03:13:39;94005.50;;;8.89;100.00
1832;BME280;1680;48.106;11.708;2023-10-19T03:16:10;94014.38;;;8.93;100.00
1832;BME280;1680;48.106;11.708;2023-10-19T03:18:36;94018.03;;;8.92;100.00
1832;BME280;1680;48.106;11.708;2023-10-19T03:21:04;94018.59;;;8.94;100.00
1832;BME280;1680;48.106;11.708;2023-10-19T03:23:30;94009.91;;;8.88;100.00
1832;BME280;1680;48.106;11.708;2023-10-19T03:26:00;94006.22;;;8.84;100.00
1832;BME280;1680;48.106;11.708;2023-10-19T03:28:50;94002.88;;;8.89;100.00
1832;BME280;1680;48.106;11.708;2023-10-19T03:31:22;94000.69;;;8.81;100.00
1832;BME280;1680;48.106;11.708;2023-10-19T03:33:51;93997.06;;;8.82;100.00
1832;BME280;1680;48.106;11.708;2023-10-19T03:36:21;93991.25;;;8.75;100.00
1832;BME280;1680;48.106;11.708;2023-10-19T03:38:49;93992.31;;;8.79;100.00
1832;BME280;1680;48.106;11.708;2023-10-19T03:41:18;93976.41;;;8.80;100.00
1832;BME280;1680;48.106;11.708;2023-10-19T03:43:47;93974.53;;;8.76;100.00
1832;BME280;1680;48.106;11.708;2023-10-19T03:46:17;93971.41;;;8.79;100.00
1832;BME280;1680;48.106;11.708;2023-10-19T03:48:56;93970.91;;;8.82;100.00
1832;BME280;1680;48.106;11.708;2023-10-19T03:51:29;93967.06;;;8.89;100.00
1832;BME280;1680;48.106;11.708;2023-10-19T03:54:15;93972.28;;;8.89;100.00
1832;BME280;1680;48.106;11.708;2023-10-19T03:56:48;93964.66;;;8.83;100.00
1832;BME280;1680;48.106;11.708;2023-10-19T03:59:16;93975.38;;;8.86;100.00
1832;BME280;1680;48.106;11.708;2023-10-19T04:01:44;93975.16;;;8.88;100.00
1832;BME280;1680;48.106;11.708;2023-10-19T04:04:13;93970.97;;;8.92;100.00
1832;BME280;1680;48.106;11.708;2023-10-19T04:06:41;93971.50;;;8.89;100.00
1832;BME280;1680;48.106;11.708;2023-10-19T04:09:12;93963.69;;;8.94;100.00
1832;BME280;1680;48.106;11.708;2023-10-19T04:11:41;93958.44;;;8.89;100.00
1832;BME280;1680;48.106;11.708;2023-10-19T04:14:14;93970.97;;;8.92;100.00
1832;BME280;1680;48.106;11.708;2023-10-19T04:16:42;93965.25;;;8.90;100.00
1832;BME280;1680;48.106;11.708;2023-10-19T04:19:09;93970.22;;;8.91;100.00
1832;BME280;1680;48.106;11.708;2023-10-19T04:21:38;93962.09;;;8.93;100.00
1832;BME280;1680;48.106;11.708;2023-10-19T04:24:09;93970.97;;;8.92;100.00
1832;BME280;1680;48.106;11.708;2023-10-19T04:26:38;93961.63;;;8.96;100.00
1832;BME280;1680;48.106;11.708;2023-10-19T04:29:07;93973.59;;;8.92;100.00
1832;BME280;1680;48.106;11.708;2023-10-19T04:31:36;93972.06;;;8.96;100.00
1832;BME280;1680;48.106;11.708;2023-10-19T04:34:06;93960.63;;;9.02;100.00
1832;BME280;1680;48.106;11.708;2023-10-19T04:36:33;93955.94;;;9.09;100.00
1832;BME280;1680;48.106;11.708;2023-10-19T04:39:02;93961.44;;;9.07;100.00
1832;BME280;1680;48.106;11.708;2023-10-19T04:41:29;93961.97;;;9.09;100.00
1832;BME280;1680;48.106;11.708;2023-10-19T04:43:57;93958.63;;;9.14;100.00
1832;BME280;1680;48.106;11.708;2023-10-19T04:46:26;93963.56;;;9.15;100.00
1832;BME280;1680;48.106;11.708;2023-10-19T04:48:54;93952.59;;;9.13;100.00
1832;BME280;1680;48.106;11.708;2023-10-19T04:51:21;93949.72;;;9.15;100.00
1832;BME280;1680;48.106;11.708;2023-10-19T04:53:48;93948.94;;;9.14;100.00
1832;BME280;1680;48.106;11.708;2023-10-19T04:56:17;93942.44;;;9.17;100.00
1832;BME280;1680;48.106;11.708;2023-10-19T04:58:44;93936.69;;;9.20;100.00
1832;BME280;1680;48.106;11.708;2023-10-19T05:01:12;93932.25;;;9.20;100.00
1832;BME280;1680;48.106;11.708;2023-10-19T05:03:40;93932.25;;;9.20;100.00
1832;BME280;1680;48.106;11.708;2023-10-19T05:06:08;93929.31;;;9.12;100.00
1832;BME280;1680;48.106;11.708;2023-10-19T05:08:36;93926.69;;;9.12;100.00
1832;BME280;1680;48.106;11.708;2023-10-19T05:11:03;93935.66;;;9.21;100.00
1832;BME280;1680;48.106;11.708;2023-10-19T05:13:32;93925.72;;;9.23;100.00
1832;BME280;1680;48.106;11.708;2023-10-19T05:16:00;93937.53;;;9.30;100.00
1832;BME280;1680;48.106;11.708;2023-10-19T05:18:27;93925.28;;;9.36;100.00
1832;BME280;1680;48.106;11.708;2023-10-19T05:20:55;93925.78;;;9.38;100.00
1832;BME280;1680;48.106;11.708;2023-10-19T05:23:23;93928.41;;;9.38;100.00
1832;BME280;1680;48.106;11.708;2023-10-19T05:25:50;93930.50;;;9.36;100.00
1832;BME280;1680;48.106;11.708;2023-10-19T05:28:18;93931.81;;;9.38;100.00
1832;BME280;1680;48.106;11.708;2023-10-19T05:30:48;93927.41;;;9.44;100.00
1832;BME280;1680;48.106;11.708;2023-10-19T05:33:16;93926.88;;;9.42;100.00
1832;BME280;1680;48.106;11.708;2023-10-19T05:35:46;93938.63;;;9.39;100.00
1832;BME280;1680;48.106;11.708;2023-10-19T05:38:13;93934.94;;;9.35;100.00
1832;BME280;1680;48.106;11.708;2023-10-19T05:40:41;93940.97;;;9.36;100.00
1832;BME280;1680;48.106;11.708;2023-10-19T05:43:09;93946.22;;;9.36;100.00
1832;BME280;1680;48.106;11.708;2023-10-19T05:45:36;93949.59;;;9.36;100.00
1832;BME280;1680;48.106;11.708;2023-10-19T05:48:06;93944.56;;;9.25;100.00
1832;BME280;1680;48.106;11.708;2023-10-19T05:50:33;93937.53;;;9.30;100.00
1832;BME280;1680;48.106;11.708;2023-10-19T05:53:01;93942.53;;;9.32;100.00
1832;BME280;1680;48.106;11.708;2023-10-19T05:55:28;93945.63;;;9.29;100.00
1832;BME280;1680;48.106;11.708;2023-10-19T05:57:56;93932.00;;;9.27;100.00
1832;BME280;1680;48.106;11.708;2023-10-19T06:00:23;93937.28;;;9.32;100.00
1832;BME280;1680;48.106;11.708;2023-10-19T06:02:52;93924.22;;;9.32;100.00
1832;BME280;1680;48.106;11.708;2023-10-19T06:05:21;93932.31;;;9.35;100.00
1832;BME280;1680;48.106;11.708;2023-10-19T06:07:49;93939.91;;;9.32;100.00
1832;BME280;1680;48.106;11.708;2023-10-19T06:10:19;93933.88;;;9.31;100.00
1832;BME280;1680;48.106;11.708;2023-10-19T06:12:48;93928.91;;;9.30;100.00
1832;BME280;1680;48.106;11.708;2023-10-19T06:15:18;93928.94;;;9.35;100.00
1832;BME280;1680;48.106;11.708;2023-10-19T06:17:46;93927.38;;;9.34;100.00
1832;BME280;1680;48.106;11.708;2023-10-19T06:20:15;93927.59;;;9.32;100.00
1832;BME280;1680;48.106;11.708;2023-10-19T06:22:54;93934.41;;;9.33;100.00
1832;BME280;1680;48.106;11.708;2023-10-19T06:25:23;93926.78;;;9.27;100.00
1832;BME280;1680;48.106;11.708;2023-10-19T06:27:51;93918.09;;;9.16;100.00
1832;BME280;1680;48.106;11.708;2023-10-19T06:30:19;93930.97;;;9.28;100.00
1832;BME280;1680;48.106;11.708;2023-10-19T06:32:50;93929.94;;;9.29;100.00
1832;BME280;1680;48.106;11.708;2023-10-19T06:35:17;93935.44;;;9.32;100.00
1832;BME280;1680;48.106;11.708;2023-10-19T06:37:45;93929.44;;;9.32;100.00
1832;BME280;1680;48.106;11.708;2023-10-19T06:40:14;93932.06;;;9.37;100.00
1832;BME280;1680;48.106;11.708;2023-10-19T06:42:42;93932.63;;;9.44;100.00
1832;BME280;1680;48.106;11.708;2023-10-19T06:45:10;93932.41;;;9.50;100.00
1832;BME280;1680;48.106;11.708;2023-10-19T06:47:40;93927.22;;;9.55;100.00
1832;BME280;1680;48.106;11.708;2023-10-19T06:50:08;93923.84;;;9.64;100.00
1832;BME280;1680;48.106;11.708;2023-10-19T06:52:36;93928.63;;;9.77;100.00
1832;BME280;1680;48.106;11.708;2023-10-19T06:55:04;93917.09;;;9.78;100.00
1832;BME280;1680;48.106;11.708;2023-10-19T06:57:34;93906.09;;;9.81;100.00
1832;BME280;1680;48.106;11.708;2023-10-19T07:00:01;93915.06;;;9.95;100.00
1832;BME280;1680;48.106;11.708;2023-10-19T07:02:39;93910.13;;;9.99;100.00
1832;BME280;1680;48.106;11.708;2023-10-19T07:05:08;93906.69;;;9.93;100.00
1832;BME280;1680;48.106;11.708;2023-10-19T07:07:37;93904.91;;;10.09;100.00
1832;BME280;1680;48.106;11.708;2023-10-19T07:10:06;93898.91;;;10.08;100.00
1832;BME280;1680;48.106;11.708;2023-10-19T07:12:35;93915.16;;;10.30;100.00
1832;BME280;1680;48.106;11.708;2023-10-19T07:15:04;93898.94;;;10.33;100.00
1832;BME280;1680;48.106;11.708;2023-10-19T07:17:33;93888.97;;;10.35;100.00
1832;BME280;1680;48.106;11.708;2023-10-19T07:20:00;93906.81;;;10.58;100.00
1832;BME280;1680;48.106;11.708;2023-10-19T07:22:29;93898.44;;;10.61;100.00
1832;BME280;1680;48.106;11.708;2023-10-19T07:24:56;93921.78;;;10.92;100.00
1832;BME280;1680;48.106;11.708;2023-10-19T07:27:25;93932.00;;;10.99;100.00
1832;BME280;1680;48.106;11.708;2023-10-19T07:29:55;93932.00;;;11.09;100.00
1832;BME280;1680;48.106;11.708;2023-10-19T07:32:22;93926.19;;;11.27;100.00
1832;BME280;1680;48.106;11.708;2023-10-19T07:34:49;93907.56;;;11.33;100.00
1832;BME280;1680;48.106;11.708;2023-10-19T07:37:17;93910.94;;;11.44;100.00
1832;BME280;1680;48.106;11.708;2023-10-19T07:39:45;93912.50;;;11.60;100.00
1832;BME280;1680;48.106;11.708;2023-10-19T07:42:14;93914.56;;;11.72;100.00
1832;BME280;1680;48.106;11.708;2023-10-19T07:44:41;93920.81;;;11.81;100.00
1832;BME280;1680;48.106;11.708;2023-10-19T07:47:10;93912.88;;;11.91;100.00
1832;BME280;1680;48.106;11.708;2023-10-19T07:49:37;93914.44;;;11.97;100.00
1832;BME280;1680;48.106;11.708;2023-10-19T07:52:04;93913.34;;;12.08;100.00
1832;BME280;1680;48.106;11.708;2023-10-19T07:54:33;93915.94;;;12.18;100.00
1832;BME280;1680;48.106;11.708;2023-10-19T07:57:00;93913.53;;;12.27;100.00
1832;BME280;1680;48.106;11.708;2023-10-19T07:59:31;93919.47;;;12.37;100.00
1832;BME280;1680;48.106;11.708;2023-10-19T08:01:58;93916.84;;;12.42;100.00
1832;BME280;1680;48.106;11.708;2023-10-19T08:04:29;93908.94;;;12.47;100.00
1832;BME280;1680;48.106;11.708;2023-10-19T08:06:56;93899.41;;;12.51;100.00
1832;BME280;1680;48.106;11.708;2023-10-19T08:09:23;93896.44;;;12.62;100.00
1832;BME280;1680;48.106;11.708;2023-10-19T08:11:57;93910.81;;;12.75;100.00
1832;BME280;1680;48.106;11.708;2023-10-19T08:14:25;93895.50;;;12.82;100.00
1832;BME280;1680;48.106;11.708;2023-10-19T08:16:52;93894.94;;;12.95;100.00
1832;BME280;1680;48.106;11.708;2023-10-19T08:19:21;93885.31;;;13.09;100.00
1832;BME280;1680;48.106;11.708;2023-10-19T08:21:49;93882.59;;;13.19;100.00
1832;BME280;1680;48.106;11.708;2023-10-19T08:24:16;93881.19;;;13.26;100.00
1832;BME280;1680;48.106;11.708;2023-10-19T08:26:44;93884.44;;;13.42;100.00
1832;BME280;1680;48.106;11.708;2023-10-19T08:29:11;93884.91;;;13.49;100.00
1832;BME280;1680;48.106;11.708;2023-10-19T08:31:39;93872.25;;;13.74;100.00
1832;BME280;1680;48.106;11.708;2023-10-19T08:34:07;93874.91;;;13.92;100.00
1832;BME280;1680;48.106;11.708;2023-10-19T08:36:36;93862.19;;;13.99;100.00
1832;BME280;1680;48.106;11.708;2023-10-19T08:39:06;93864.06;;;14.17;100.00
1832;BME280;1680;48.106;11.708;2023-10-19T08:41:34;93865.44;;;14.33;100.00
1832;BME280;1680;48.106;11.708;2023-10-19T08:44:03;93775.34;;;13.89;100.00
1832;BME280;1680;48.106;11.708;2023-10-19T08:46:36;93870.84;;;14.60;100.00
1832;BME280;1680;48.106;11.708;2023-10-19T08:49:03;93866.91;;;14.57;100.00
1832;BME280;1680;48.106;11.708;2023-10-19T08:51:32;93853.47;;;14.59;100.00
1832;BME280;1680;48.106;11.708;2023-10-19T08:54:01;93866.78;;;14.67;100.00
1832;BME280;1680;48.106;11.708;2023-10-19T08:56:31;93871.09;;;14.77;100.00
1832;BME280;1680;48.106;11.708;2023-10-19T08:58:58;93870.59;;;14.93;100.00
1832;BME280;1680;48.106;11.708;2023-10-19T09:01:27;93868.63;;;14.99;100.00
1832;BME280;1680;48.106;11.708;2023-10-19T09:03:56;93880.28;;;15.30;100.00
1832;BME280;1680;48.106;11.708;2023-10-19T09:06:24;93860.16;;;15.34;100.00
1832;BME280;1680;48.106;11.708;2023-10-19T09:08:53;93861.91;;;15.38;100.00
1832;BME280;1680;48.106;11.708;2023-10-19T09:11:23;93855.94;;;15.59;100.00
1832;BME280;1680;48.106;11.708;2023-10-19T09:13:52;93875.25;;;15.73;100.00
1832;BME280;1680;48.106;11.708;2023-10-19T09:16:22;93863.59;;;15.74;100.00
1832;BME280;1680;48.106;11.708;2023-10-19T09:18:52;93860.47;;;15.72;100.00
1832;BME280;1680;48.106;11.708;2023-10-19T09:21:20;93851.34;;;15.65;100.00
1832;BME280;1680;48.106;11.708;2023-10-19T09:23:54;93853.03;;;15.74;100.00
1832;BME280;1680;48.106;11.708;2023-10-19T09:26:23;93849.22;;;15.67;100.00
1832;BME280;1680;48.106;11.708;2023-10-19T09:28:52;93854.69;;;15.70;100.00
1832;BME280;1680;48.106;11.708;2023-10-19T09:31:20;93852.63;;;15.67;100.00
1832;BME280;1680;48.106;11.708;2023-10-19T09:33:49;93849.50;;;15.65;100.00
1832;BME280;1680;48.106;11.708;2023-10-19T09:36:18;93861.16;;;15.64;100.00
1832;BME280;1680;48.106;11.708;2023-10-19T09:38:49;93851.53;;;15.68;100.00
1832;BME280;1680;48.106;11.708;2023-10-19T09:41:19;93851.53;;;15.68;100.00
1832;BME280;1680;48.106;11.708;2023-10-19T09:43:47;93842.16;;;15.62;100.00
1832;BME280;1680;48.106;11.708;2023-10-19T09:46:21;93860.94;;;15.74;100.00
1832;BME280;1680;48.106;11.708;2023-10-19T09:48:49;93853.69;;;15.66;100.00
1832;BME280;1680;48.106;11.708;2023-10-19T09:51:18;93867.22;;;15.65;100.00
1832;BME280;1680;48.106;11.708;2023-10-19T09:53:51;93845.75;;;15.66;100.00
1832;BME280;1680;48.106;11.708;2023-10-19T09:56:21;93841.19;;;15.72;100.00
1832;BME280;1680;48.106;11.708;2023-10-19T09:58:55;93853.09;;;15.96;100.00
1832;BME280;1680;48.106;11.708;2023-10-19T10:01:27;93851.50;;;16.09;100.00
1832;BME280;1680;48.106;11.708;2023-10-19T10:03:54;93854.41;;;16.21;100.00
1832;BME280;1680;48.106;11.708;2023-10-19T10:06:28;93850.00;;;16.30;100.00
1832;BME280;1680;48.106;11.708;2023-10-19T10:08:59;93843.81;;;16.48;100.00
1832;BME280;1680;48.106;11.708;2023-10-19T10:11:27;93848.16;;;16.65;100.00
1832;BME280;1680;48.106;11.708;2023-10-19T10:13:55;93828.69;;;16.61;100.00
1832;BME280;1680;48.106;11.708;2023-10-19T10:16:26;93822.97;;;16.68;100.00
1832;BME280;1680;48.106;11.708;2023-10-19T10:18:55;93827.47;;;16.67;100.00
1832;BME280;1680;48.106;11.708;2023-10-19T10:21:25;93824.03;;;16.67;100.00
1832;BME280;1680;48.106;11.708;2023-10-19T10:23:54;93813.56;;;16.62;100.00
1832;BME280;1680;48.106;11.708;2023-10-19T10:26:24;93816.44;;;16.74;100.00
1832;BME280;1680;48.106;11.708;2023-10-19T10:29:11;93819.75;;;16.79;100.00
1832;BME280;1680;48.106;11.708;2023-10-19T10:31:44;93827.94;;;16.69;100.00
1832;BME280;1680;48.106;11.708;2023-10-19T10:34:44;93818.66;;;17.02;100.00
1832;BME280;1680;48.106;11.708;2023-10-19T10:37:12;93817.63;;;17.12;100.00
1832;BME280;1680;48.106;11.708;2023-10-19T10:39:40;93815.19;;;17.24;100.00
1832;BME280;1680;48.106;11.708;2023-10-19T10:42:10;93817.59;;;17.34;100.00
1832;BME280;1680;48.106;11.708;2023-10-19T10:44:38;93828.69;;;17.36;100.00
1832;BME280;1680;48.106;11.708;2023-10-19T10:47:08;93812.78;;;17.36;100.00
1832;BME280;1680;48.106;11.708;2023-10-19T10:49:46;93798.50;;;17.15;100.00
1832;BME280;1680;48.106;11.708;2023-10-19T10:52:23;93810.44;;;17.34;100.00
1832;BME280;1680;48.106;11.708;2023-10-19T10:54:51;93808.72;;;17.30;100.00
1832;BME280;1680;48.106;11.708;2023-10-19T10:57:19;93804.19;;;17.30;100.00
1832;BME280;1680;48.106;11.708;2023-10-19T10:59:46;93784.63;;;17.18;100.00
1832;BME280;1680;48.106;11.708;2023-10-19T11:02:18;93793.38;;;17.57;100.00
1832;BME280;1680;48.106;11.708;2023-10-19T11:04:47;93787.38;;;17.73;100.00
1832;BME280;1680;48.106;11.708;2023-10-19T11:07:18;93783.63;;;17.91;100.00
1832;BME280;1680;48.106;11.708;2023-10-19T11:09:47;93786.47;;;17.95;100.00
1832;BME280;1680;48.106;11.708;2023-10-19T11:12:14;93786.31;;;18.00;100.00
1832;BME280;1680;48.106;11.708;2023-10-19T11:14:52;93789.75;;;18.00;100.00
1832;BME280;1680;48.106;11.708;2023-10-19T11:17:21;93777.13;;;18.06;100.00
1832;BME280;1680;48.106;11.708;2023-10-19T11:19:54;93780.94;;;18.30;100.00
1832;BME280;1680;48.106;11.708;2023-10-19T11:22:22;93790.47;;;18.40;100.00
1832;BME280;1680;48.106;11.708;2023-10-19T11:24:51;93779.38;;;18.46;100.00
1832;BME280;1680;48.106;11.708;2023-10-19T11:27:24;93779.38;;;18.46;100.00
1832;BME280;1680;48.106;11.708;2023-10-19T11:29:55;93776.38;;;18.48;100.00
1832;BME280;1680;48.106;11.708;2023-10-19T11:32:24;93775.00;;;18.50;100.00
1832;BME280;1680;48.106;11.708;2023-10-19T11:34:52;93773.72;;;18.56;100.00
1832;BME280;1680;48.106;11.708;2023-10-19T11:37:19;93772.16;;;18.55;100.00
1832;BME280;1680;48.106;11.708;2023-10-19T11:39:47;93772.03;;;18.52;100.00
1832;BME280;1680;48.106;11.708;2023-10-19T11:42:15;93748.28;;;18.47;100.00
1832;BME280;1680;48.106;11.708;2023-10-19T11:44:43;93751.72;;;18.39;100.00
1832;BME280;1680;48.106;11.708;2023-10-19T11:47:11;93742.97;;;18.30;100.00
1832;BME280;1680;48.106;11.708;2023-10-19T11:49:41;93721.91;;;18.33;100.00
1832;BME280;1680;48.106;11.708;2023-10-19T11:52:08;93710.97;;;18.43;100.00
1832;BME280;1680;48.106;11.708;2023-10-19T11:54:35;93723.28;;;18.48;100.00
1832;BME280;1680;48.106;11.708;2023-10-19T11:57:03;93711.72;;;18.52;100.00
1832;BME280;1680;48.106;11.708;2023-10-19T11:59:30;93695.97;;;18.47;100.00
1832;BME280;1680;48.106;11.708;2023-10-19T12:01:57;93693.63;;;18.46;100.00
1832;BME280;1680;48.106;11.708;2023-10-19T12:04:26;93692.22;;;18.48;100.00
1832;BME280;1680;48.106;11.708;2023-10-19T12:06:54;93704.44;;;18.32;100.00
1832;BME280;1680;48.106;11.708;2023-10-19T12:09:21;93683.81;;;18.46;100.00
1832;BME280;1680;48.106;11.708;2023-10-19T12:11:50;93682.41;;;18.32;100.00
1832;BME280;1680;48.106;11.708;2023-10-19T12:14:19;93681.50;;;18.28;100.00
1832;BME280;1680;48.106;11.708;2023-10-19T12:16:48;93675.84;;;18.46;100.00
1832;BME280;1680;48.106;11.708;2023-10-19T12:19:15;93690.66;;;18.47;100.00
1832;BME280;1680;48.106;11.708;2023-10-19T12:21:44;93689.88;;;18.55;100.00
1832;BME280;1680;48.106;11.708;2023-10-19T12:24:13;93690.91;;;18.71;100.00
1832;BME280;1680;48.106;11.708;2023-10-19T12:26:40;93687.78;;;18.69;100.00
1832;BME280;1680;48.106;11.708;2023-10-19T12:29:07;93683.47;;;18.48;100.00
1832;BME280;1680;48.106;11.708;2023-10-19T12:31:36;93686.31;;;18.34;100.00
1832;BME280;1680;48.106;11.708;2023-10-19T12:34:05;93679.28;;;18.13;100.00
1832;BME280;1680;48.106;11.708;2023-10-19T12:36:34;93678.16;;;18.22;100.00
1832;BME280;1680;48.106;11.708;2023-10-19T12:39:01;93674.78;;;18.30;100.00
1832;BME280;1680;48.106;11.708;2023-10-19T12:41:31;93662.44;;;18.43;100.00
1832;BME280;1680;48.106;11.708;2023-10-19T12:43:59;93655.50;;;18.58;100.00
1832;BME280;1680;48.106;11.708;2023-10-19T12:46:33;93638.03;;;18.95;100.00
1832;BME280;1680;48.106;11.708;2023-10-19T12:49:03;93636.47;;;19.31;100.00
1832;BME280;1680;48.106;11.708;2023-10-19T12:51:33;93647.16;;;19.52;95.70
1832;BME280;1680;48.106;11.708;2023-10-19T12:54:01;93654.38;;;19.43;95.22
1832;BME280;1680;48.106;11.708;2023-10-19T12:56:28;93648.88;;;19.19;98.91
1832;BME280;1680;48.106;11.708;2023-10-19T12:59:00;93655.25;;;19.26;98.27
1832;BME280;1680;48.106;11.708;2023-10-19T13:01:27;93639.16;;;19.31;95.96
1832;BME280;1680;48.106;11.708;2023-10-19T13:03:54;93610.13;;;19.09;95.87
1832;BME280;1680;48.106;11.708;2023-10-19T13:06:21;93630.16;;;19.07;95.01
1832;BME280;1680;48.106;11.708;2023-10-19T13:08:50;93626.72;;;19.15;94.24
1832;BME280;1680;48.106;11.708;2023-10-19T13:11:17;93624.09;;;18.98;97.02
1832;BME280;1680;48.106;11.708;2023-10-19T13:13:44;93632.34;;;18.76;94.27
1832;BME280;1680;48.106;11.708;2023-10-19T13:16:14;93626.59;;;18.65;92.18
1832;BME280;1680;48.106;11.708;2023-10-19T13:18:41;93624.38;;;18.76;93.58
1832;BME280;1680;48.106;11.708;2023-10-19T13:21:09;93627.59;;;18.90;93.79